Airfield :
LOGIN :

Register | Disclaimer

   EN    FR    IT 

 










Legend :    VFR   Marginal VFR   IFR   Intensive IFR   Very Intensive IFR
Visi :
Ceiling :
>= 8 km
>= 3000ft
5 to 8 km
1000 to 3000 ft
1500m to 5 km
500 to 1000 ft
800 to 1500m
200 to 500 ft
< 800m
< 200 ft
Symbols :   Thunderstorms  Fog  Heavy snow  Heavy precipitations  Wind > 20 kt
SIGMETs :     Misc.  Thunderstorms  Icing  Turbulence  Mountain Waves  Volcanic Ashes






- Airport Elevation : 1161 ft
- IATA code : RJL


LELO - Logroño-Agoncillo

CURRENT METAR :
  • 190800Z 27008KT 240V320 CAVOK 19/11 Q1015

EXPIRED METARs :
  • 190730Z 28008KT 250V320 CAVOK 18/11 Q1014
  • 190700Z 27005KT CAVOK 17/11 Q1014
  • 190630Z 26005KT 220V330 CAVOK 17/12 Q1014
  • 190600Z 00000KT CAVOK 15/12 Q1014
  • 190530Z VRB01KT CAVOK 14/11 Q1014
  • 190500Z VRB02KT CAVOK 14/11 Q1013
  • 190430Z AUTO 27006KT CAVOK 13/11 Q1013
  • 190400Z AUTO 25007KT CAVOK 13/11 Q1013
  • 190330Z AUTO 25004KT 230V290 CAVOK 13/11 Q1013

TAF TAF LELO
Valid from the 19 at 03:00 until the 20 at 03:00 UTC


190200Z 1903/2003 28007KT CAVOK TX27/1916Z TN15/1905Z
PROB30
TEMPO 1914/1921 VRB10G20KT 4000 TSRA SHRA FEW035CB



MET'MAP, your aeronautical weather chart ! - Copyright ORBIFLY December 2007 - Disclaimer

ORBIFLY MET'MAP TEAM :

Programming & Development : Alexandra Zaïnal
Original concept : Baudouin d'Aumeries
Technical & hardware support : Manuel Goepfert
Assistance : Marc-Olivier Méhu




SOURCES & CREDITS :

   NOAA